Terminal Aerodrome Forecast
Issued by NWS North Platte, NE

Home | Current Version | Previous Version | Text Only | Print | Product List | Glossary On
Versions: 1 2 3 4 5 6 7 8 9 10 11 12 13 14
000
FTUS43 KLBF 201235 AAA
TAFLBF
TAF AMD
KLBF 201235Z 2013/2112 35006KT P6SM FEW200
      TEMPO 2012/2013 1SM BR
     FM201500 04006KT P6SM FEW200
     FM202000 07008KT P6SM SCT250
     FM210000 07006KT P6SM SCT080 BKN200=

USA.gov is the U.S. government's official web portal to all federal, state and local government web resources and services.